KFTY/FTY METAR and TAF weather

Enter ICAO airport designator
Station Type Date Time Source
KFTY METAR 2020/09/21 05:53 UTC NOAA

KFTY 210553Z 07008G16KT 10SM CLR 16/08 A3033 RMK AO2 SLP267 T01560078 10178 20139 50006


Station Type Date Time Source
KFTY Decoded METAR 2020/09/21 05:53 UTC NOAA

ATLANTA FULTON COUNTY AIRPORT , GA, United States (KFTY) 33-47N 84-31W 263M
Sep 21, 2020 - 01:53 AM EDT / 2020.09.21 0553 UTC
Wind: from the ENE (070 degrees) at 9 MPH (8 KT) gusting to 18 MPH (16 KT):0
Visibility: 10 mile(s):0
Sky conditions: clear
Temperature: 60.1 F (15.6 C)
Dew Point: 46.0 F (7.8 C)
Relative Humidity: 59%
Pressure (altimeter): 30.33 in. Hg (1027 hPa)
Pressure tendency: 0.02 inches (0.6 hPa) higher than three hours ago
ob: KFTY 210553Z 07008G16KT 10SM CLR 16/08 A3033 RMK AO2 SLP267 T01560078 10178 20139 50006
cycle: 6

Station Type Date Time Source
KFTY TAF 2020/09/21 06:36 UTC NOAA

TAF KFTY 210534Z 2106/2206 07010G16KT P6SM FEW250
FM211500 07012G20KT P6SM FEW250
FM212200 08008KT P6SM SKC

Example: see airport list